sensor_id;sensor_type;location;lat;lon;timestamp;pressure;altitude;pressure_sealevel;temperature;humidity
51243;BME280;37812;47.556;18.718;2022-08-19T00:01:40;99187.50;;;24.10;59.67
51243;BME280;37812;47.556;18.718;2022-08-19T00:04:10;99197.47;;;23.99;60.43
51243;BME280;37812;47.556;18.718;2022-08-19T00:06:38;99190.19;;;23.75;61.39
51243;BME280;37812;47.556;18.718;2022-08-19T00:09:06;99186.66;;;23.76;60.62
51243;BME280;37812;47.556;18.718;2022-08-19T00:11:33;99183.03;;;23.80;61.25
51243;BME280;37812;47.556;18.718;2022-08-19T00:14:00;99193.66;;;23.77;60.47
51243;BME280;37812;47.556;18.718;2022-08-19T00:16:26;99192.03;;;23.73;60.25
51243;BME280;37812;47.556;18.718;2022-08-19T00:18:54;99195.09;;;23.53;60.64
51243;BME280;37812;47.556;18.718;2022-08-19T00:21:22;99191.34;;;23.65;61.24
51243;BME280;37812;47.556;18.718;2022-08-19T00:23:47;99181.81;;;23.57;61.68
51243;BME280;37812;47.556;18.718;2022-08-19T00:26:14;99189.69;;;23.59;60.81
51243;BME280;37812;47.556;18.718;2022-08-19T00:28:40;99187.91;;;23.61;60.97
51243;BME280;37812;47.556;18.718;2022-08-19T00:31:07;99178.34;;;23.55;61.92
51243;BME280;37812;47.556;18.718;2022-08-19T00:33:33;99180.44;;;23.41;63.43
51243;BME280;37812;47.556;18.718;2022-08-19T00:36:05;99188.72;;;23.26;63.37
51243;BME280;37812;47.556;18.718;2022-08-19T00:38:33;99184.47;;;23.20;62.07
51243;BME280;37812;47.556;18.718;2022-08-19T00:40:59;99186.00;;;23.29;62.99
51243;BME280;37812;47.556;18.718;2022-08-19T00:43:27;99180.69;;;23.32;63.33
51243;BME280;37812;47.556;18.718;2022-08-19T00:45:53;99179.00;;;23.28;63.51
51243;BME280;37812;47.556;18.718;2022-08-19T00:48:23;99179.09;;;23.25;63.47
51243;BME280;37812;47.556;18.718;2022-08-19T00:50:52;99179.09;;;23.25;63.32
51243;BME280;37812;47.556;18.718;2022-08-19T00:53:22;99192.25;;;23.26;63.10
51243;BME280;37812;47.556;18.718;2022-08-19T00:55:51;99189.50;;;23.31;62.72
51243;BME280;37812;47.556;18.718;2022-08-19T00:58:21;99185.09;;;23.32;63.12
51243;BME280;37812;47.556;18.718;2022-08-19T01:00:48;99185.97;;;23.32;62.09
51243;BME280;37812;47.556;18.718;2022-08-19T01:03:17;99174.34;;;23.39;61.68
51243;BME280;37812;47.556;18.718;2022-08-19T01:05:44;99165.38;;;23.46;61.52
51243;BME280;37812;47.556;18.718;2022-08-19T01:08:11;99159.25;;;23.44;62.51
51243;BME280;37812;47.556;18.718;2022-08-19T01:10:42;99166.47;;;23.36;63.31
51243;BME280;37812;47.556;18.718;2022-08-19T01:13:10;99169.63;;;23.15;63.95
51243;BME280;37812;47.556;18.718;2022-08-19T01:15:44;99175.94;;;23.08;62.95
51243;BME280;37812;47.556;18.718;2022-08-19T01:18:17;99185.87;;;22.96;64.77
51243;BME280;37812;47.556;18.718;2022-08-19T01:20:44;99172.78;;;22.92;65.29
51243;BME280;37812;47.556;18.718;2022-08-19T01:23:13;99164.34;;;22.74;65.61
51243;BME280;37812;47.556;18.718;2022-08-19T01:25:51;99157.31;;;22.75;65.53
51243;BME280;37812;47.556;18.718;2022-08-19T01:28:20;99164.53;;;22.67;65.55
51243;BME280;37812;47.556;18.718;2022-08-19T01:30:47;99154.78;;;22.69;66.12
51243;BME280;37812;47.556;18.718;2022-08-19T01:33:14;99152.16;;;22.69;66.05
51243;BME280;37812;47.556;18.718;2022-08-19T01:35:43;99143.28;;;22.73;64.61
51243;BME280;37812;47.556;18.718;2022-08-19T01:38:27;99143.16;;;22.79;65.19
51243;BME280;37812;47.556;18.718;2022-08-19T01:40:57;99126.47;;;22.79;65.60
51243;BME280;37812;47.556;18.718;2022-08-19T01:43:24;99131.78;;;22.75;65.90
51243;BME280;37812;47.556;18.718;2022-08-19T01:45:49;99127.38;;;22.76;65.29
51243;BME280;37812;47.556;18.718;2022-08-19T01:48:16;99129.94;;;22.81;64.94
51243;BME280;37812;47.556;18.718;2022-08-19T01:50:43;99129.41;;;22.65;65.62
51243;BME280;37812;47.556;18.718;2022-08-19T01:53:10;99112.38;;;22.80;64.71
51243;BME280;37812;47.556;18.718;2022-08-19T01:55:40;99118.41;;;22.86;64.57
51243;BME280;37812;47.556;18.718;2022-08-19T01:58:20;99115.78;;;22.86;64.59
51243;BME280;37812;47.556;18.718;2022-08-19T02:00:48;99124.87;;;22.71;65.93
51243;BME280;37812;47.556;18.718;2022-08-19T02:03:14;99120.50;;;22.69;65.59
51243;BME280;37812;47.556;18.718;2022-08-19T02:05:42;99127.09;;;22.50;66.61
51243;BME280;37812;47.556;18.718;2022-08-19T02:08:10;99123.47;;;22.54;66.57
51243;BME280;37812;47.556;18.718;2022-08-19T02:10:39;99113.62;;;22.62;65.94
51243;BME280;37812;47.556;18.718;2022-08-19T02:13:06;99116.22;;;22.65;65.88
51243;BME280;37812;47.556;18.718;2022-08-19T02:15:32;99110.13;;;22.63;65.64
51243;BME280;37812;47.556;18.718;2022-08-19T02:17:58;99119.94;;;22.56;66.49
51243;BME280;37812;47.556;18.718;2022-08-19T02:20:24;99117.34;;;22.55;66.22
51243;BME280;37812;47.556;18.718;2022-08-19T02:22:50;99106.78;;;22.55;65.30
51243;BME280;37812;47.556;18.718;2022-08-19T02:25:17;99099.63;;;22.60;64.97
51243;BME280;37812;47.556;18.718;2022-08-19T02:27:43;99106.38;;;22.73;64.88
51243;BME280;37812;47.556;18.718;2022-08-19T02:30:12;99102.97;;;22.68;64.61
51243;BME280;37812;47.556;18.718;2022-08-19T02:32:38;99104.84;;;22.63;65.80
51243;BME280;37812;47.556;18.718;2022-08-19T02:35:05;99106.06;;;22.46;67.11
51243;BME280;37812;47.556;18.718;2022-08-19T02:37:31;99114.12;;;22.40;67.25
51243;BME280;37812;47.556;18.718;2022-08-19T02:40:15;99111.03;;;22.20;68.37
51243;BME280;37812;47.556;18.718;2022-08-19T02:42:44;99112.94;;;22.12;68.59
51243;BME280;37812;47.556;18.718;2022-08-19T02:45:14;99116.69;;;21.99;69.14
51243;BME280;37812;47.556;18.718;2022-08-19T02:47:40;99115.19;;;21.85;69.81
51243;BME280;37812;47.556;18.718;2022-08-19T02:50:06;99119.75;;;21.76;69.54
51243;BME280;37812;47.556;18.718;2022-08-19T02:52:33;99135.66;;;21.70;70.51
51243;BME280;37812;47.556;18.718;2022-08-19T02:54:59;99133.94;;;21.67;70.58
51243;BME280;37812;47.556;18.718;2022-08-19T02:57:25;99131.47;;;21.58;70.15
51243;BME280;37812;47.556;18.718;2022-08-19T02:59:52;99128.00;;;21.56;69.73
51243;BME280;37812;47.556;18.718;2022-08-19T03:02:18;99128.00;;;21.56;70.69
51243;BME280;37812;47.556;18.718;2022-08-19T03:04:44;99137.75;;;21.51;70.51
51243;BME280;37812;47.556;18.718;2022-08-19T03:07:13;99142.22;;;21.46;70.85
51243;BME280;37812;47.556;18.718;2022-08-19T03:09:39;99135.19;;;21.48;70.98
51243;BME280;37812;47.556;18.718;2022-08-19T03:12:06;99147.47;;;21.47;70.70
51243;BME280;37812;47.556;18.718;2022-08-19T03:14:32;99150.16;;;21.43;70.92
51243;BME280;37812;47.556;18.718;2022-08-19T03:16:59;99149.09;;;21.53;70.85
51243;BME280;37812;47.556;18.718;2022-08-19T03:19:26;99156.16;;;21.51;70.23
51243;BME280;37812;47.556;18.718;2022-08-19T03:21:53;99161.81;;;21.26;71.33
51243;BME280;37812;47.556;18.718;2022-08-19T03:24:20;99161.00;;;21.21;71.99
51243;BME280;37812;47.556;18.718;2022-08-19T03:26:51;99154.69;;;21.34;71.63
51243;BME280;37812;47.556;18.718;2022-08-19T03:29:19;99158.16;;;21.36;71.17
51243;BME280;37812;47.556;18.718;2022-08-19T03:31:45;99158.06;;;21.43;70.89
51243;BME280;37812;47.556;18.718;2022-08-19T03:34:14;99152.72;;;21.49;70.71
51243;BME280;37812;47.556;18.718;2022-08-19T03:36:40;99150.84;;;21.54;70.53
51243;BME280;37812;47.556;18.718;2022-08-19T03:39:06;99152.59;;;21.55;70.60
51243;BME280;37812;47.556;18.718;2022-08-19T03:41:37;99157.81;;;21.58;70.64
51243;BME280;37812;47.556;18.718;2022-08-19T03:44:03;99166.44;;;21.10;72.99
51243;BME280;37812;47.556;18.718;2022-08-19T03:46:34;99168.09;;;21.16;72.93
51243;BME280;37812;47.556;18.718;2022-08-19T03:49:03;99171.13;;;20.89;74.11
51243;BME280;37812;47.556;18.718;2022-08-19T03:51:35;99174.59;;;20.91;73.30
51243;BME280;37812;47.556;18.718;2022-08-19T03:54:05;99175.31;;;21.03;73.32
51243;BME280;37812;47.556;18.718;2022-08-19T03:56:34;99176.03;;;21.13;72.74
51243;BME280;37812;47.556;18.718;2022-08-19T03:59:01;99173.28;;;21.21;72.22
51243;BME280;37812;47.556;18.718;2022-08-19T04:01:28;99179.19;;;21.38;71.59
51243;BME280;37812;47.556;18.718;2022-08-19T04:03:58;99180.75;;;21.50;71.26
51243;BME280;37812;47.556;18.718;2022-08-19T04:06:33;99186.28;;;21.34;72.03
51243;BME280;37812;47.556;18.718;2022-08-19T04:09:02;99195.84;;;21.38;70.82
51243;BME280;37812;47.556;18.718;2022-08-19T04:11:33;99198.44;;;21.42;70.99
51243;BME280;37812;47.556;18.718;2022-08-19T04:14:00;99184.13;;;21.58;71.10
51243;BME280;37812;47.556;18.718;2022-08-19T04:16:27;99183.88;;;21.73;70.27
51243;BME280;37812;47.556;18.718;2022-08-19T04:18:59;99178.41;;;21.85;69.96
51243;BME280;37812;47.556;18.718;2022-08-19T04:21:27;99179.00;;;22.00;69.56
51243;BME280;37812;47.556;18.718;2022-08-19T04:23:55;99176.09;;;22.15;67.75
51243;BME280;37812;47.556;18.718;2022-08-19T04:26:24;99181.53;;;22.06;68.93
51243;BME280;37812;47.556;18.718;2022-08-19T04:28:51;99177.91;;;22.13;69.21
51243;BME280;37812;47.556;18.718;2022-08-19T04:31:23;99179.53;;;22.20;68.59
51243;BME280;37812;47.556;18.718;2022-08-19T04:33:56;99168.31;;;22.54;67.62
51243;BME280;37812;47.556;18.718;2022-08-19T04:36:34;99180.13;;;22.76;66.79
51243;BME280;37812;47.556;18.718;2022-08-19T04:39:04;99190.38;;;22.93;67.16
51243;BME280;37812;47.556;18.718;2022-08-19T04:41:32;99191.94;;;23.01;65.71
51243;BME280;37812;47.556;18.718;2022-08-19T04:44:18;99188.31;;;23.06;66.99
51243;BME280;37812;47.556;18.718;2022-08-19T04:46:48;99197.84;;;23.13;66.19
51243;BME280;37812;47.556;18.718;2022-08-19T04:49:16;99197.69;;;22.77;67.65
51243;BME280;37812;47.556;18.718;2022-08-19T04:51:44;99193.81;;;22.96;64.51
51243;BME280;37812;47.556;18.718;2022-08-19T04:54:12;99189.78;;;23.19;65.39
51243;BME280;37812;47.556;18.718;2022-08-19T04:56:39;99193.03;;;23.30;65.27
51243;BME280;37812;47.556;18.718;2022-08-19T04:59:06;99196.84;;;23.54;65.87
51243;BME280;37812;47.556;18.718;2022-08-19T05:01:33;99199.00;;;23.75;65.01
51243;BME280;37812;47.556;18.718;2022-08-19T05:04:00;99195.34;;;23.81;66.69
51243;BME280;37812;47.556;18.718;2022-08-19T05:06:27;99178.56;;;24.16;63.59
51243;BME280;37812;47.556;18.718;2022-08-19T05:08:54;99188.69;;;24.93;61.71
51243;BME280;37812;47.556;18.718;2022-08-19T05:11:29;99180.84;;;25.74;58.67
51243;BME280;37812;47.556;18.718;2022-08-19T05:13:56;99185.16;;;26.53;57.03
51243;BME280;37812;47.556;18.718;2022-08-19T05:16:24;99184.22;;;27.45;54.38
51243;BME280;37812;47.556;18.718;2022-08-19T05:18:50;99188.53;;;28.12;51.48
51243;BME280;37812;47.556;18.718;2022-08-19T05:21:35;99192.19;;;28.50;50.39
51243;BME280;37812;47.556;18.718;2022-08-19T05:24:21;99196.53;;;28.52;50.35
51243;BME280;37812;47.556;18.718;2022-08-19T05:26:50;99195.75;;;28.88;50.30
51243;BME280;37812;47.556;18.718;2022-08-19T05:29:20;99199.63;;;29.74;48.07
51243;BME280;37812;47.556;18.718;2022-08-19T05:31:48;99203.06;;;29.03;50.25
51243;BME280;37812;47.556;18.718;2022-08-19T05:34:18;99199.59;;;30.27;44.60
51243;BME280;37812;47.556;18.718;2022-08-19T05:36:48;99199.00;;;30.55;45.75
51243;BME280;37812;47.556;18.718;2022-08-19T05:39:18;99202.72;;;31.17;41.95
51243;BME280;37812;47.556;18.718;2022-08-19T05:41:46;99201.06;;;32.08;39.84
51243;BME280;37812;47.556;18.718;2022-08-19T05:44:12;99194.06;;;32.64;37.99
51243;BME280;37812;47.556;18.718;2022-08-19T05:46:40;99195.81;;;32.94;37.09
51243;BME280;37812;47.556;18.718;2022-08-19T05:49:08;99188.72;;;32.50;38.41
51243;BME280;37812;47.556;18.718;2022-08-19T05:51:35;99194.09;;;32.92;36.96
51243;BME280;37812;47.556;18.718;2022-08-19T05:54:05;99189.25;;;33.12;36.72
51243;BME280;37812;47.556;18.718;2022-08-19T05:56:31;99194.72;;;31.95;39.60
51243;BME280;37812;47.556;18.718;2022-08-19T05:58:58;99196.84;;;30.95;41.21
51243;BME280;37812;47.556;18.718;2022-08-19T06:01:25;99193.59;;;31.21;40.76
51243;BME280;37812;47.556;18.718;2022-08-19T06:03:51;99190.09;;;31.37;40.28
51243;BME280;37812;47.556;18.718;2022-08-19T06:06:18;99187.66;;;31.48;40.21
51243;BME280;37812;47.556;18.718;2022-08-19T06:08:44;99187.97;;;31.10;41.49
51243;BME280;37812;47.556;18.718;2022-08-19T06:11:33;99185.25;;;32.33;38.48
51243;BME280;37812;47.556;18.718;2022-08-19T06:14:01;99188.75;;;33.19;34.84
51243;BME280;37812;47.556;18.718;2022-08-19T06:16:28;99182.88;;;33.41;34.30
51243;BME280;37812;47.556;18.718;2022-08-19T06:19:00;99185.28;;;34.13;32.57
51243;BME280;37812;47.556;18.718;2022-08-19T06:21:27;99175.47;;;34.12;32.15
51243;BME280;37812;47.556;18.718;2022-08-19T06:23:54;99170.00;;;34.26;31.82
51243;BME280;37812;47.556;18.718;2022-08-19T06:26:21;99168.09;;;34.28;31.66
51243;BME280;37812;47.556;18.718;2022-08-19T06:28:48;99165.41;;;34.15;31.52
51243;BME280;37812;47.556;18.718;2022-08-19T06:31:20;99181.50;;;34.79;30.68
51243;BME280;37812;47.556;18.718;2022-08-19T06:33:47;99183.66;;;34.99;30.47
51243;BME280;37812;47.556;18.718;2022-08-19T06:36:37;99180.94;;;33.97;31.87
51243;BME280;37812;47.556;18.718;2022-08-19T06:39:07;99180.84;;;33.72;32.10
51243;BME280;37812;47.556;18.718;2022-08-19T06:41:39;99180.88;;;34.63;30.73
51243;BME280;37812;47.556;18.718;2022-08-19T06:44:06;99189.12;;;32.86;33.49
51243;BME280;37812;47.556;18.718;2022-08-19T06:46:33;99193.31;;;32.76;33.07
51243;BME280;37812;47.556;18.718;2022-08-19T06:48:59;99196.88;;;33.86;31.16
51243;BME280;37812;47.556;18.718;2022-08-19T06:51:26;99215.16;;;32.99;32.82
51243;BME280;37812;47.556;18.718;2022-08-19T06:53:53;99216.50;;;33.06;33.07
51243;BME280;37812;47.556;18.718;2022-08-19T06:56:27;99222.50;;;34.05;30.67
51243;BME280;37812;47.556;18.718;2022-08-19T06:59:09;99220.47;;;33.81;31.11
51243;BME280;37812;47.556;18.718;2022-08-19T07:01:42;99221.72;;;35.06;28.87
51243;BME280;37812;47.556;18.718;2022-08-19T07:04:14;99218.09;;;34.04;30.37
51243;BME280;37812;47.556;18.718;2022-08-19T07:06:42;99220.94;;;35.53;28.19
51243;BME280;37812;47.556;18.718;2022-08-19T07:09:10;99211.03;;;36.37;26.91
51243;BME280;37812;47.556;18.718;2022-08-19T07:11:36;99212.41;;;36.18;27.30
51243;BME280;37812;47.556;18.718;2022-08-19T07:14:02;99213.34;;;36.41;26.70
51243;BME280;37812;47.556;18.718;2022-08-19T07:16:28;99224.19;;;35.46;27.88
51243;BME280;37812;47.556;18.718;2022-08-19T07:18:55;99211.16;;;36.46;26.63
51243;BME280;37812;47.556;18.718;2022-08-19T07:21:26;99222.03;;;35.51;27.54
51243;BME280;37812;47.556;18.718;2022-08-19T07:23:54;99218.88;;;37.18;25.29
51243;BME280;37812;47.556;18.718;2022-08-19T07:26:24;99216.59;;;38.21;24.31
51243;BME280;37812;47.556;18.718;2022-08-19T07:28:51;99225.66;;;37.78;24.43
51243;BME280;37812;47.556;18.718;2022-08-19T07:31:20;99219.94;;;37.93;23.92
51243;BME280;37812;47.556;18.718;2022-08-19T07:33:48;99212.62;;;38.36;23.68
51243;BME280;37812;47.556;18.718;2022-08-19T07:36:18;99207.87;;;38.50;23.84
51243;BME280;37812;47.556;18.718;2022-08-19T07:38:46;99214.78;;;38.43;23.86
51243;BME280;37812;47.556;18.718;2022-08-19T07:41:18;99216.34;;;38.97;23.03
51243;BME280;37812;47.556;18.718;2022-08-19T07:43:45;99210.84;;;38.77;23.13
51243;BME280;37812;47.556;18.718;2022-08-19T07:46:11;99211.47;;;38.60;23.39
51243;BME280;37812;47.556;18.718;2022-08-19T07:48:41;99210.00;;;38.56;23.00
51243;BME280;37812;47.556;18.718;2022-08-19T07:51:09;99217.72;;;38.81;22.84
51243;BME280;37812;47.556;18.718;2022-08-19T07:53:37;99219.16;;;38.85;22.67
51243;BME280;37812;47.556;18.718;2022-08-19T07:56:05;99225.09;;;38.79;23.06
51243;BME280;37812;47.556;18.718;2022-08-19T07:58:36;99221.72;;;37.71;23.32
51243;BME280;37812;47.556;18.718;2022-08-19T08:01:05;99217.94;;;36.97;24.27
51243;BME280;37812;47.556;18.718;2022-08-19T08:03:31;99224.66;;;38.32;23.04
51243;BME280;37812;47.556;18.718;2022-08-19T08:06:16;99222.28;;;38.60;22.31
51243;BME280;37812;47.556;18.718;2022-08-19T08:09:03;99219.59;;;39.21;21.36
51243;BME280;37812;47.556;18.718;2022-08-19T08:11:44;99225.03;;;39.40;21.43
51243;BME280;37812;47.556;18.718;2022-08-19T08:14:17;99215.59;;;39.25;22.11
51243;BME280;37812;47.556;18.718;2022-08-19T08:16:44;99219.78;;;38.99;22.56
51243;BME280;37812;47.556;18.718;2022-08-19T08:19:12;99223.94;;;39.53;21.46
51243;BME280;37812;47.556;18.718;2022-08-19T08:21:41;99204.22;;;38.91;22.18
51243;BME280;37812;47.556;18.718;2022-08-19T08:24:07;99203.50;;;38.37;22.95
51243;BME280;37812;47.556;18.718;2022-08-19T08:26:33;99201.84;;;36.51;26.25
51243;BME280;37812;47.556;18.718;2022-08-19T08:28:59;99194.63;;;36.96;24.33
51243;BME280;37812;47.556;18.718;2022-08-19T08:31:25;99189.53;;;36.24;25.69
51243;BME280;37812;47.556;18.718;2022-08-19T08:33:51;99189.44;;;35.67;25.76
51243;BME280;37812;47.556;18.718;2022-08-19T08:36:17;99196.13;;;34.49;27.51
51243;BME280;37812;47.556;18.718;2022-08-19T08:38:44;99198.28;;;36.39;25.26
51243;BME280;37812;47.556;18.718;2022-08-19T08:43:59;99196.19;;;34.10;26.60
51243;BME280;37812;47.556;18.718;2022-08-19T08:46:35;99196.28;;;35.71;25.34
51243;BME280;37812;47.556;18.718;2022-08-19T08:49:24;99194.28;;;37.55;23.96
51243;BME280;37812;47.556;18.718;2022-08-19T08:52:05;99192.00;;;37.82;23.32
51243;BME280;37812;47.556;18.718;2022-08-19T08:54:40;99192.53;;;36.77;24.06
51243;BME280;37812;47.556;18.718;2022-08-19T08:57:13;99204.66;;;37.39;23.58
51243;BME280;37812;47.556;18.718;2022-08-19T08:59:41;99194.84;;;36.37;23.66
51243;BME280;37812;47.556;18.718;2022-08-19T09:02:09;99188.66;;;35.17;25.47
51243;BME280;37812;47.556;18.718;2022-08-19T09:04:36;99186.63;;;37.28;23.85
51243;BME280;37812;47.556;18.718;2022-08-19T09:07:22;99183.81;;;38.77;22.65
51243;BME280;37812;47.556;18.718;2022-08-19T09:09:56;99177.19;;;37.98;22.31
51243;BME280;37812;47.556;18.718;2022-08-19T09:13:05;99171.16;;;38.57;21.62
51243;BME280;37812;47.556;18.718;2022-08-19T09:15:45;99160.25;;;38.37;22.39
51243;BME280;37812;47.556;18.718;2022-08-19T09:18:16;99154.13;;;38.66;21.88
51243;BME280;37812;47.556;18.718;2022-08-19T09:20:42;99153.34;;;38.24;22.02
51243;BME280;37812;47.556;18.718;2022-08-19T09:23:08;99155.16;;;36.84;23.31
51243;BME280;37812;47.556;18.718;2022-08-19T09:25:37;99164.25;;;36.03;24.61
51243;BME280;37812;47.556;18.718;2022-08-19T09:28:06;99149.84;;;35.08;25.65
51243;BME280;37812;47.556;18.718;2022-08-19T09:30:38;99155.37;;;36.36;24.10
51243;BME280;37812;47.556;18.718;2022-08-19T09:33:05;99160.28;;;35.60;24.64
51243;BME280;37812;47.556;18.718;2022-08-19T09:35:31;99164.72;;;36.54;24.16
51243;BME280;37812;47.556;18.718;2022-08-19T09:37:58;99166.78;;;37.61;22.20
51243;BME280;37812;47.556;18.718;2022-08-19T09:40:28;99167.44;;;36.88;22.89
51243;BME280;37812;47.556;18.718;2022-08-19T09:42:54;99170.00;;;37.12;23.17
51243;BME280;37812;47.556;18.718;2022-08-19T09:45:22;99155.09;;;36.16;23.80
51243;BME280;37812;47.556;18.718;2022-08-19T09:47:50;99150.44;;;36.07;24.46
51243;BME280;37812;47.556;18.718;2022-08-19T09:50:17;99150.22;;;37.11;23.13
51243;BME280;37812;47.556;18.718;2022-08-19T09:52:44;99150.94;;;37.24;23.33
51243;BME280;37812;47.556;18.718;2022-08-19T09:55:11;99153.28;;;37.61;22.75
51243;BME280;37812;47.556;18.718;2022-08-19T09:57:37;99148.69;;;37.41;22.37
51243;BME280;37812;47.556;18.718;2022-08-19T10:00:06;99148.81;;;37.82;22.66
51243;BME280;37812;47.556;18.718;2022-08-19T10:02:34;99148.28;;;37.02;23.48
51243;BME280;37812;47.556;18.718;2022-08-19T10:05:00;99143.03;;;38.18;22.16
51243;BME280;37812;47.556;18.718;2022-08-19T10:07:45;99141.16;;;38.29;22.43
51243;BME280;37812;47.556;18.718;2022-08-19T10:10:11;99142.72;;;38.11;21.72
51243;BME280;37812;47.556;18.718;2022-08-19T10:12:37;99147.41;;;36.34;24.11
51243;BME280;37812;47.556;18.718;2022-08-19T10:15:05;99130.19;;;37.68;23.14
51243;BME280;37812;47.556;18.718;2022-08-19T10:17:32;99148.47;;;37.97;23.22
51243;BME280;37812;47.556;18.718;2022-08-19T10:19:59;99140.16;;;38.30;22.15
51243;BME280;37812;47.556;18.718;2022-08-19T10:22:25;99135.66;;;38.71;22.69
51243;BME280;37812;47.556;18.718;2022-08-19T10:24:52;99140.53;;;37.20;23.16
51243;BME280;37812;47.556;18.718;2022-08-19T10:27:20;99134.19;;;36.20;24.78
51243;BME280;37812;47.556;18.718;2022-08-19T10:29:46;99140.06;;;37.58;23.82
51243;BME280;37812;47.556;18.718;2022-08-19T10:32:14;99143.72;;;38.10;22.75
51243;BME280;37812;47.556;18.718;2022-08-19T10:34:40;99130.66;;;36.53;24.30
51243;BME280;37812;47.556;18.718;2022-08-19T10:37:06;99146.56;;;36.79;24.74
51243;BME280;37812;47.556;18.718;2022-08-19T10:39:33;99154.00;;;37.63;24.34
51243;BME280;37812;47.556;18.718;2022-08-19T10:42:07;99136.16;;;38.04;23.03
51243;BME280;37812;47.556;18.718;2022-08-19T10:44:36;99137.38;;;37.47;23.78
51243;BME280;37812;47.556;18.718;2022-08-19T10:47:03;99133.91;;;38.09;23.49
51243;BME280;37812;47.556;18.718;2022-08-19T10:49:29;99145.09;;;38.77;23.30
51243;BME280;37812;47.556;18.718;2022-08-19T10:51:57;99138.38;;;37.99;23.36
51243;BME280;37812;47.556;18.718;2022-08-19T10:54:42;99134.19;;;35.50;26.28
51243;BME280;37812;47.556;18.718;2022-08-19T10:57:30;99132.41;;;35.37;26.66
51243;BME280;37812;47.556;18.718;2022-08-19T10:59:58;99139.91;;;36.27;25.73
51243;BME280;37812;47.556;18.718;2022-08-19T11:02:23;99133.94;;;37.13;24.89
51243;BME280;37812;47.556;18.718;2022-08-19T11:04:49;99132.84;;;36.70;24.88
51243;BME280;37812;47.556;18.718;2022-08-19T11:07:21;99134.47;;;37.39;24.12
51243;BME280;37812;47.556;18.718;2022-08-19T11:09:52;99142.59;;;36.15;25.91
51243;BME280;37812;47.556;18.718;2022-08-19T11:12:17;99148.22;;;37.24;24.70
51243;BME280;37812;47.556;18.718;2022-08-19T11:14:45;99145.00;;;37.42;24.24
51243;BME280;37812;47.556;18.718;2022-08-19T11:17:10;99135.47;;;37.26;24.87
51243;BME280;37812;47.556;18.718;2022-08-19T11:19:39;99150.94;;;36.24;26.16
51243;BME280;37812;47.556;18.718;2022-08-19T11:22:07;99151.44;;;37.18;24.35
51243;BME280;37812;47.556;18.718;2022-08-19T11:24:37;99146.87;;;37.30;24.22
51243;BME280;37812;47.556;18.718;2022-08-19T11:27:07;99138.16;;;37.38;24.95
51243;BME280;37812;47.556;18.718;2022-08-19T11:29:37;99129.19;;;36.38;24.72
51243;BME280;37812;47.556;18.718;2022-08-19T11:32:06;99137.25;;;36.83;24.49
51243;BME280;37812;47.556;18.718;2022-08-19T11:34:34;99130.78;;;36.40;25.32
51243;BME280;37812;47.556;18.718;2022-08-19T11:37:02;99136.88;;;36.31;24.98
51243;BME280;37812;47.556;18.718;2022-08-19T11:39:32;99135.56;;;36.48;24.82
51243;BME280;37812;47.556;18.718;2022-08-19T11:42:00;99135.91;;;36.88;24.56
51243;BME280;37812;47.556;18.718;2022-08-19T11:44:28;99134.31;;;36.30;24.22
51243;BME280;37812;47.556;18.718;2022-08-19T11:46:55;99119.28;;;36.61;24.38
51243;BME280;37812;47.556;18.718;2022-08-19T11:49:22;99120.09;;;37.06;24.00
51243;BME280;37812;47.556;18.718;2022-08-19T11:51:48;99114.12;;;36.46;25.37
51243;BME280;37812;47.556;18.718;2022-08-19T11:54:16;99114.69;;;36.05;25.48
51243;BME280;37812;47.556;18.718;2022-08-19T11:56:43;99115.22;;;36.55;24.65
51243;BME280;37812;47.556;18.718;2022-08-19T11:59:09;99112.66;;;35.85;25.73
51243;BME280;37812;47.556;18.718;2022-08-19T12:01:38;99121.62;;;35.61;25.97
51243;BME280;37812;47.556;18.718;2022-08-19T12:04:06;99113.38;;;35.87;25.92
51243;BME280;37812;47.556;18.718;2022-08-19T12:06:32;99111.91;;;36.29;24.48
51243;BME280;37812;47.556;18.718;2022-08-19T12:09:05;99122.34;;;36.67;23.94
51243;BME280;37812;47.556;18.718;2022-08-19T12:11:32;99119.88;;;36.98;23.65
51243;BME280;37812;47.556;18.718;2022-08-19T12:13:58;99129.06;;;35.82;25.17
51243;BME280;37812;47.556;18.718;2022-08-19T12:16:26;99133.72;;;35.56;25.63
51243;BME280;37812;47.556;18.718;2022-08-19T12:18:54;99124.47;;;36.17;25.28
51243;BME280;37812;47.556;18.718;2022-08-19T12:21:24;99124.78;;;36.59;24.36
51243;BME280;37812;47.556;18.718;2022-08-19T12:23:50;99128.09;;;35.35;26.18
51243;BME280;37812;47.556;18.718;2022-08-19T12:26:17;99130.78;;;35.35;26.72
51243;BME280;37812;47.556;18.718;2022-08-19T12:28:44;99114.38;;;35.86;25.68
51243;BME280;37812;47.556;18.718;2022-08-19T12:31:11;99111.31;;;36.59;24.74
51243;BME280;37812;47.556;18.718;2022-08-19T12:33:47;99109.22;;;37.28;24.36
51243;BME280;37812;47.556;18.718;2022-08-19T12:36:15;99100.97;;;37.73;23.72
51243;BME280;37812;47.556;18.718;2022-08-19T12:38:42;99095.69;;;37.51;23.25
51243;BME280;37812;47.556;18.718;2022-08-19T12:41:14;99098.16;;;36.88;24.83
51243;BME280;37812;47.556;18.718;2022-08-19T12:43:41;99094.78;;;37.18;24.23
51243;BME280;37812;47.556;18.718;2022-08-19T12:46:08;99090.19;;;37.62;23.34
51243;BME280;37812;47.556;18.718;2022-08-19T12:48:34;99097.62;;;37.49;23.58
51243;BME280;37812;47.556;18.718;2022-08-19T12:51:06;99089.38;;;37.82;22.99
51243;BME280;37812;47.556;18.718;2022-08-19T12:53:32;99095.69;;;38.34;23.01
51243;BME280;37812;47.556;18.718;2022-08-19T12:55:58;99089.62;;;38.52;22.32
51243;BME280;37812;47.556;18.718;2022-08-19T12:58:26;99090.12;;;37.20;23.45
51243;BME280;37812;47.556;18.718;2022-08-19T13:00:53;99084.72;;;36.55;24.57
51243;BME280;37812;47.556;18.718;2022-08-19T13:03:18;99093.37;;;36.02;25.61